VTSP Airport Information

Runway Information
Runway 09 Length 9843 ft width 148 ft
Elevation 19 ft Threshold 0 ft Heading 85
Runway 27 Length 9843 ft Width 148 ft
Elevation 82 ft Threshold 0 ft Heading 265
Airport Frequencies
Type APP Name APP Frequency 124.7 MHZ
Type ATIS Name ATIS Frequency 128 MHZ
Type GND Name GND Frequency 121.9 MHZ
Type TWR Name TWR Frequency 118.1 MHZ
Airport Navaids
Type NDB Name Phuket Frequency 360 KHZ
Type VOR-DME Name Phuket Frequency 116900 KHZ
Airport Weather Information & NOTAM
ADDS - METARS form results

(0944 UTC 26 February 2021)
Data provider http://aviationweather.gov/metar/data/
 
METAR text: VTSP 260930Z 30011KT 270V340 9999 FEW020 30/22 Q1006 WS ALL RWY NOSIG
Conditions at: VTSP (PHUKET INTL AIRP, TH) observed 0930 UTC 26 February 2021
Temperature: 30.0°C (86°F)
Dewpoint: 22.0°C (72°F) [RH = 62%]
Pressure (altimeter): 29.70 inches Hg (1006.0 mb)
Winds: from the WNW (300 degrees) at 13 MPH (11 knots; 5.7 m/s)
Visibility: 6 or more miles (10+ km)
Ceiling: at least 12,000 feet AGL
Clouds: few clouds at 2000 feet AGL
Weather: no significant weather observed at this time

METAR text: VTSP 260900Z 29011KT 9999 FEW020 30/22 Q1006 NOSIG
Conditions at: VTSP (PHUKET INTL AIRP, TH) observed 0900 UTC 26 February 2021
Temperature: 30.0°C (86°F)
Dewpoint: 22.0°C (72°F) [RH = 62%]
Pressure (altimeter): 29.70 inches Hg (1006.0 mb)
Winds: from the WNW (290 degrees) at 13 MPH (11 knots; 5.7 m/s)
Visibility: 6 or more miles (10+ km)
Ceiling: at least 12,000 feet AGL
Clouds: few clouds at 2000 feet AGL
Weather: no significant weather observed at this time

Forecast for: VTSP (PHUKET INTL AIRP, TH)
Text: TAF VTSP 260500Z 2606/2712 30008KT 9999 FEW020
Forecast period: 0600 UTC 26 February 2021 to 1200 UTC 27 February 2021
Forecast type: FROM: standard forecast or significant change
Winds: from the WNW (300 degrees) at 9 MPH (8 knots; 4.1 m/s)
Visibility: 6 or more miles (10+ km)
Ceiling: at least 12,000 feet AGL
Clouds: few clouds at 2000 feet AGL
Weather: no significant weather forecast for this period